sensor_id;sensor_type;location;lat;lon;timestamp;P1;durP1;ratioP1;P2;durP2;ratioP2
16878;SDS011;8556;52.218;9.884;2022-12-10T00:01:42;71.83;;;26.00;;
16878;SDS011;8556;52.218;9.884;2022-12-10T00:04:09;71.80;;;22.03;;
16878;SDS011;8556;52.218;9.884;2022-12-10T00:06:37;74.60;;;25.77;;
16878;SDS011;8556;52.218;9.884;2022-12-10T00:09:06;74.13;;;22.33;;
16878;SDS011;8556;52.218;9.884;2022-12-10T00:11:36;72.13;;;25.97;;
16878;SDS011;8556;52.218;9.884;2022-12-10T00:14:05;72.37;;;26.00;;
16878;SDS011;8556;52.218;9.884;2022-12-10T00:16:33;66.60;;;25.00;;
16878;SDS011;8556;52.218;9.884;2022-12-10T00:19:00;77.10;;;26.57;;
16878;SDS011;8556;52.218;9.884;2022-12-10T00:21:28;63.07;;;25.03;;
16878;SDS011;8556;52.218;9.884;2022-12-10T00:23:56;63.00;;;18.30;;
16878;SDS011;8556;52.218;9.884;2022-12-10T00:26:24;81.63;;;23.77;;
16878;SDS011;8556;52.218;9.884;2022-12-10T00:28:52;56.53;;;17.87;;
16878;SDS011;8556;52.218;9.884;2022-12-10T00:31:22;44.83;;;16.57;;
16878;SDS011;8556;52.218;9.884;2022-12-10T00:33:50;53.10;;;16.80;;
16878;SDS011;8556;52.218;9.884;2022-12-10T00:36:19;70.17;;;19.87;;
16878;SDS011;8556;52.218;9.884;2022-12-10T00:38:47;65.57;;;25.50;;
16878;SDS011;8556;52.218;9.884;2022-12-10T00:41:14;65.23;;;24.07;;
16878;SDS011;8556;52.218;9.884;2022-12-10T00:43:42;62.17;;;24.33;;
16878;SDS011;8556;52.218;9.884;2022-12-10T00:46:09;69.40;;;26.17;;
16878;SDS011;8556;52.218;9.884;2022-12-10T00:48:37;61.13;;;21.27;;
16878;SDS011;8556;52.218;9.884;2022-12-10T00:51:06;72.53;;;25.93;;
16878;SDS011;8556;52.218;9.884;2022-12-10T00:53:35;78.00;;;27.80;;
16878;SDS011;8556;52.218;9.884;2022-12-10T00:56:03;74.10;;;23.67;;
16878;SDS011;8556;52.218;9.884;2022-12-10T00:58:31;63.13;;;20.60;;
16878;SDS011;8556;52.218;9.884;2022-12-10T01:01:06;66.07;;;21.57;;
16878;SDS011;8556;52.218;9.884;2022-12-10T01:03:34;73.57;;;26.53;;
16878;SDS011;8556;52.218;9.884;2022-12-10T01:06:08;70.63;;;23.73;;
16878;SDS011;8556;52.218;9.884;2022-12-10T01:08:37;63.70;;;24.97;;
16878;SDS011;8556;52.218;9.884;2022-12-10T01:11:04;70.20;;;26.33;;
16878;SDS011;8556;52.218;9.884;2022-12-10T01:13:31;71.37;;;26.30;;
16878;SDS011;8556;52.218;9.884;2022-12-10T01:15:59;77.73;;;27.40;;
16878;SDS011;8556;52.218;9.884;2022-12-10T01:18:27;63.93;;;25.90;;
16878;SDS011;8556;52.218;9.884;2022-12-10T01:20:53;64.27;;;24.40;;
16878;SDS011;8556;52.218;9.884;2022-12-10T01:23:21;57.97;;;21.83;;
16878;SDS011;8556;52.218;9.884;2022-12-10T01:25:48;67.47;;;21.03;;
16878;SDS011;8556;52.218;9.884;2022-12-10T01:28:15;63.87;;;24.93;;
16878;SDS011;8556;52.218;9.884;2022-12-10T01:30:42;64.20;;;24.43;;
16878;SDS011;8556;52.218;9.884;2022-12-10T01:33:08;61.10;;;23.57;;
16878;SDS011;8556;52.218;9.884;2022-12-10T01:35:36;64.37;;;25.60;;
16878;SDS011;8556;52.218;9.884;2022-12-10T01:38:03;71.73;;;24.23;;
16878;SDS011;8556;52.218;9.884;2022-12-10T01:40:31;65.33;;;23.77;;
16878;SDS011;8556;52.218;9.884;2022-12-10T01:43:03;80.87;;;24.77;;
16878;SDS011;8556;52.218;9.884;2022-12-10T01:45:30;78.97;;;25.73;;
16878;SDS011;8556;52.218;9.884;2022-12-10T01:47:56;74.87;;;26.20;;
16878;SDS011;8556;52.218;9.884;2022-12-10T01:50:23;65.73;;;24.17;;
16878;SDS011;8556;52.218;9.884;2022-12-10T01:52:50;70.53;;;24.00;;
16878;SDS011;8556;52.218;9.884;2022-12-10T01:55:39;80.77;;;24.63;;
16878;SDS011;8556;52.218;9.884;2022-12-10T01:58:08;74.53;;;25.43;;
16878;SDS011;8556;52.218;9.884;2022-12-10T02:00:40;83.00;;;24.80;;
16878;SDS011;8556;52.218;9.884;2022-12-10T02:03:13;72.20;;;24.83;;
16878;SDS011;8556;52.218;9.884;2022-12-10T02:05:47;67.97;;;23.70;;
16878;SDS011;8556;52.218;9.884;2022-12-10T02:08:19;75.20;;;23.97;;
16878;SDS011;8556;52.218;9.884;2022-12-10T02:10:55;77.60;;;25.33;;
16878;SDS011;8556;52.218;9.884;2022-12-10T02:13:33;73.23;;;23.83;;
16878;SDS011;8556;52.218;9.884;2022-12-10T02:16:06;74.33;;;25.80;;
16878;SDS011;8556;52.218;9.884;2022-12-10T02:18:39;76.47;;;25.00;;
16878;SDS011;8556;52.218;9.884;2022-12-10T02:21:12;65.83;;;26.17;;
16878;SDS011;8556;52.218;9.884;2022-12-10T02:23:43;75.90;;;26.80;;
16878;SDS011;8556;52.218;9.884;2022-12-10T02:26:14;78.13;;;27.27;;
16878;SDS011;8556;52.218;9.884;2022-12-10T02:28:53;80.13;;;29.37;;
16878;SDS011;8556;52.218;9.884;2022-12-10T02:31:31;79.33;;;28.53;;
16878;SDS011;8556;52.218;9.884;2022-12-10T02:34:00;72.80;;;26.53;;
16878;SDS011;8556;52.218;9.884;2022-12-10T02:36:31;70.00;;;26.03;;
16878;SDS011;8556;52.218;9.884;2022-12-10T02:39:01;78.60;;;28.10;;
16878;SDS011;8556;52.218;9.884;2022-12-10T02:41:32;78.70;;;27.37;;
16878;SDS011;8556;52.218;9.884;2022-12-10T02:44:02;64.87;;;26.37;;
16878;SDS011;8556;52.218;9.884;2022-12-10T02:46:33;75.07;;;26.37;;
16878;SDS011;8556;52.218;9.884;2022-12-10T02:49:03;74.73;;;26.90;;
16878;SDS011;8556;52.218;9.884;2022-12-10T02:51:32;71.83;;;24.93;;
16878;SDS011;8556;52.218;9.884;2022-12-10T02:53:59;67.67;;;25.93;;
16878;SDS011;8556;52.218;9.884;2022-12-10T02:56:27;73.13;;;26.43;;
16878;SDS011;8556;52.218;9.884;2022-12-10T02:59:02;75.17;;;25.17;;
16878;SDS011;8556;52.218;9.884;2022-12-10T03:01:41;81.33;;;29.17;;
16878;SDS011;8556;52.218;9.884;2022-12-10T03:04:16;67.17;;;24.40;;
16878;SDS011;8556;52.218;9.884;2022-12-10T03:06:50;75.90;;;24.73;;
16878;SDS011;8556;52.218;9.884;2022-12-10T03:09:19;65.60;;;25.10;;
16878;SDS011;8556;52.218;9.884;2022-12-10T03:11:49;68.57;;;24.07;;
16878;SDS011;8556;52.218;9.884;2022-12-10T03:14:25;83.93;;;27.07;;
16878;SDS011;8556;52.218;9.884;2022-12-10T03:16:56;75.67;;;26.00;;
16878;SDS011;8556;52.218;9.884;2022-12-10T03:19:26;61.70;;;23.27;;
16878;SDS011;8556;52.218;9.884;2022-12-10T03:21:56;68.20;;;24.40;;
16878;SDS011;8556;52.218;9.884;2022-12-10T03:24:26;60.53;;;22.43;;
16878;SDS011;8556;52.218;9.884;2022-12-10T03:26:53;71.83;;;22.00;;
16878;SDS011;8556;52.218;9.884;2022-12-10T03:29:22;70.67;;;25.77;;
16878;SDS011;8556;52.218;9.884;2022-12-10T03:31:53;67.90;;;25.63;;
16878;SDS011;8556;52.218;9.884;2022-12-10T03:34:21;70.30;;;25.00;;
16878;SDS011;8556;52.218;9.884;2022-12-10T03:36:48;68.60;;;25.60;;
16878;SDS011;8556;52.218;9.884;2022-12-10T03:39:16;61.60;;;23.70;;
16878;SDS011;8556;52.218;9.884;2022-12-10T03:41:43;71.60;;;24.03;;
16878;SDS011;8556;52.218;9.884;2022-12-10T03:44:10;62.80;;;24.23;;
16878;SDS011;8556;52.218;9.884;2022-12-10T03:46:38;64.87;;;23.43;;
16878;SDS011;8556;52.218;9.884;2022-12-10T03:49:05;68.57;;;22.60;;
16878;SDS011;8556;52.218;9.884;2022-12-10T03:51:32;66.57;;;24.13;;
16878;SDS011;8556;52.218;9.884;2022-12-10T03:53:59;65.87;;;25.50;;
16878;SDS011;8556;52.218;9.884;2022-12-10T03:56:25;62.30;;;22.77;;
16878;SDS011;8556;52.218;9.884;2022-12-10T03:58:52;58.00;;;22.00;;
16878;SDS011;8556;52.218;9.884;2022-12-10T04:01:19;61.67;;;21.73;;
16878;SDS011;8556;52.218;9.884;2022-12-10T04:03:47;62.23;;;21.97;;
16878;SDS011;8556;52.218;9.884;2022-12-10T04:06:15;63.93;;;21.53;;
16878;SDS011;8556;52.218;9.884;2022-12-10T04:08:43;59.30;;;23.40;;
16878;SDS011;8556;52.218;9.884;2022-12-10T04:11:11;64.50;;;22.70;;
16878;SDS011;8556;52.218;9.884;2022-12-10T04:13:39;65.50;;;22.80;;
16878;SDS011;8556;52.218;9.884;2022-12-10T04:16:24;65.10;;;22.27;;
16878;SDS011;8556;52.218;9.884;2022-12-10T04:18:57;60.93;;;21.20;;
16878;SDS011;8556;52.218;9.884;2022-12-10T04:21:25;61.70;;;22.83;;
16878;SDS011;8556;52.218;9.884;2022-12-10T04:24:10;67.67;;;23.00;;
16878;SDS011;8556;52.218;9.884;2022-12-10T04:26:55;62.90;;;21.40;;
16878;SDS011;8556;52.218;9.884;2022-12-10T04:29:25;68.47;;;23.53;;
16878;SDS011;8556;52.218;9.884;2022-12-10T04:31:54;67.60;;;22.17;;
16878;SDS011;8556;52.218;9.884;2022-12-10T04:34:23;63.67;;;21.63;;
16878;SDS011;8556;52.218;9.884;2022-12-10T04:36:50;66.03;;;22.23;;
16878;SDS011;8556;52.218;9.884;2022-12-10T04:39:18;67.90;;;21.93;;
16878;SDS011;8556;52.218;9.884;2022-12-10T04:41:46;70.20;;;24.23;;
16878;SDS011;8556;52.218;9.884;2022-12-10T04:44:14;69.67;;;24.40;;
16878;SDS011;8556;52.218;9.884;2022-12-10T04:46:41;65.97;;;22.47;;
16878;SDS011;8556;52.218;9.884;2022-12-10T04:49:08;64.20;;;21.60;;
16878;SDS011;8556;52.218;9.884;2022-12-10T04:51:36;61.03;;;22.30;;
16878;SDS011;8556;52.218;9.884;2022-12-10T04:54:04;73.27;;;21.70;;
16878;SDS011;8556;52.218;9.884;2022-12-10T04:56:31;60.93;;;21.57;;
16878;SDS011;8556;52.218;9.884;2022-12-10T04:58:59;56.77;;;20.80;;
16878;SDS011;8556;52.218;9.884;2022-12-10T05:01:26;55.03;;;21.83;;
16878;SDS011;8556;52.218;9.884;2022-12-10T05:03:54;65.10;;;20.80;;
16878;SDS011;8556;52.218;9.884;2022-12-10T05:06:23;61.23;;;21.27;;
16878;SDS011;8556;52.218;9.884;2022-12-10T05:08:52;64.77;;;21.33;;
16878;SDS011;8556;52.218;9.884;2022-12-10T05:11:19;61.57;;;20.93;;
16878;SDS011;8556;52.218;9.884;2022-12-10T05:13:47;68.93;;;20.00;;
16878;SDS011;8556;52.218;9.884;2022-12-10T05:16:16;64.93;;;22.27;;
16878;SDS011;8556;52.218;9.884;2022-12-10T05:18:44;58.43;;;22.23;;
16878;SDS011;8556;52.218;9.884;2022-12-10T05:21:12;62.03;;;22.70;;
16878;SDS011;8556;52.218;9.884;2022-12-10T05:23:40;68.07;;;23.00;;
16878;SDS011;8556;52.218;9.884;2022-12-10T05:26:11;62.83;;;22.67;;
16878;SDS011;8556;52.218;9.884;2022-12-10T05:28:40;60.23;;;19.53;;
16878;SDS011;8556;52.218;9.884;2022-12-10T05:31:11;63.10;;;22.23;;
16878;SDS011;8556;52.218;9.884;2022-12-10T05:33:39;63.87;;;22.47;;
16878;SDS011;8556;52.218;9.884;2022-12-10T05:36:06;62.83;;;21.47;;
16878;SDS011;8556;52.218;9.884;2022-12-10T05:38:33;61.10;;;22.70;;
16878;SDS011;8556;52.218;9.884;2022-12-10T05:41:01;56.53;;;20.20;;
16878;SDS011;8556;52.218;9.884;2022-12-10T05:43:30;67.33;;;22.30;;
16878;SDS011;8556;52.218;9.884;2022-12-10T05:46:00;62.97;;;21.70;;
16878;SDS011;8556;52.218;9.884;2022-12-10T05:48:28;60.50;;;20.13;;
16878;SDS011;8556;52.218;9.884;2022-12-10T05:50:54;69.70;;;21.23;;
16878;SDS011;8556;52.218;9.884;2022-12-10T05:53:21;60.23;;;20.90;;
16878;SDS011;8556;52.218;9.884;2022-12-10T05:55:49;69.63;;;21.30;;
16878;SDS011;8556;52.218;9.884;2022-12-10T05:58:16;52.53;;;19.60;;
16878;SDS011;8556;52.218;9.884;2022-12-10T06:00:44;56.67;;;20.90;;
16878;SDS011;8556;52.218;9.884;2022-12-10T06:03:11;65.60;;;21.80;;
16878;SDS011;8556;52.218;9.884;2022-12-10T06:05:38;59.30;;;20.33;;
16878;SDS011;8556;52.218;9.884;2022-12-10T06:08:06;60.73;;;20.57;;
16878;SDS011;8556;52.218;9.884;2022-12-10T06:10:33;60.13;;;20.50;;
16878;SDS011;8556;52.218;9.884;2022-12-10T06:13:01;60.50;;;21.47;;
16878;SDS011;8556;52.218;9.884;2022-12-10T06:15:28;56.53;;;18.47;;
16878;SDS011;8556;52.218;9.884;2022-12-10T06:17:56;61.30;;;20.63;;
16878;SDS011;8556;52.218;9.884;2022-12-10T06:20:23;62.10;;;21.20;;
16878;SDS011;8556;52.218;9.884;2022-12-10T06:22:50;53.03;;;19.33;;
16878;SDS011;8556;52.218;9.884;2022-12-10T06:25:18;55.10;;;18.67;;
16878;SDS011;8556;52.218;9.884;2022-12-10T06:27:44;52.57;;;19.30;;
16878;SDS011;8556;52.218;9.884;2022-12-10T06:30:11;53.20;;;18.73;;
16878;SDS011;8556;52.218;9.884;2022-12-10T06:32:38;58.33;;;20.73;;
16878;SDS011;8556;52.218;9.884;2022-12-10T06:35:09;52.73;;;18.23;;
16878;SDS011;8556;52.218;9.884;2022-12-10T06:37:36;53.40;;;18.90;;
16878;SDS011;8556;52.218;9.884;2022-12-10T06:40:03;52.97;;;18.60;;
16878;SDS011;8556;52.218;9.884;2022-12-10T06:42:31;53.80;;;18.67;;
16878;SDS011;8556;52.218;9.884;2022-12-10T06:44:58;53.53;;;19.07;;
16878;SDS011;8556;52.218;9.884;2022-12-10T06:47:24;56.10;;;19.50;;
16878;SDS011;8556;52.218;9.884;2022-12-10T06:49:51;55.00;;;18.77;;
16878;SDS011;8556;52.218;9.884;2022-12-10T06:52:19;50.67;;;18.57;;
16878;SDS011;8556;52.218;9.884;2022-12-10T06:54:46;43.17;;;17.57;;
16878;SDS011;8556;52.218;9.884;2022-12-10T06:57:13;53.67;;;18.17;;
16878;SDS011;8556;52.218;9.884;2022-12-10T06:59:40;51.13;;;19.33;;
16878;SDS011;8556;52.218;9.884;2022-12-10T07:02:07;44.17;;;18.27;;
16878;SDS011;8556;52.218;9.884;2022-12-10T07:04:34;49.33;;;18.73;;
16878;SDS011;8556;52.218;9.884;2022-12-10T07:07:01;45.87;;;17.20;;
16878;SDS011;8556;52.218;9.884;2022-12-10T07:09:29;50.20;;;17.90;;
16878;SDS011;8556;52.218;9.884;2022-12-10T07:11:57;51.73;;;19.50;;
16878;SDS011;8556;52.218;9.884;2022-12-10T07:14:23;46.17;;;15.47;;
16878;SDS011;8556;52.218;9.884;2022-12-10T07:16:50;51.63;;;19.13;;
16878;SDS011;8556;52.218;9.884;2022-12-10T07:19:17;45.77;;;18.50;;
16878;SDS011;8556;52.218;9.884;2022-12-10T07:21:44;48.03;;;17.17;;
16878;SDS011;8556;52.218;9.884;2022-12-10T07:24:13;50.53;;;18.33;;
16878;SDS011;8556;52.218;9.884;2022-12-10T07:26:44;42.73;;;16.37;;
16878;SDS011;8556;52.218;9.884;2022-12-10T07:29:12;46.40;;;17.40;;
16878;SDS011;8556;52.218;9.884;2022-12-10T07:31:40;44.30;;;17.47;;
16878;SDS011;8556;52.218;9.884;2022-12-10T07:34:07;44.23;;;16.33;;
16878;SDS011;8556;52.218;9.884;2022-12-10T07:36:35;44.67;;;17.83;;
16878;SDS011;8556;52.218;9.884;2022-12-10T07:39:04;50.13;;;18.77;;
16878;SDS011;8556;52.218;9.884;2022-12-10T07:41:32;50.00;;;16.57;;
16878;SDS011;8556;52.218;9.884;2022-12-10T07:44:01;48.03;;;17.37;;
16878;SDS011;8556;52.218;9.884;2022-12-10T07:46:31;49.80;;;18.93;;
16878;SDS011;8556;52.218;9.884;2022-12-10T07:48:59;48.47;;;17.17;;
16878;SDS011;8556;52.218;9.884;2022-12-10T07:51:27;40.70;;;15.13;;
16878;SDS011;8556;52.218;9.884;2022-12-10T07:53:54;40.87;;;16.50;;
16878;SDS011;8556;52.218;9.884;2022-12-10T07:56:22;54.53;;;18.03;;
16878;SDS011;8556;52.218;9.884;2022-12-10T07:58:49;46.73;;;16.67;;
16878;SDS011;8556;52.218;9.884;2022-12-10T08:01:18;45.50;;;16.27;;
16878;SDS011;8556;52.218;9.884;2022-12-10T08:03:47;52.47;;;18.23;;
16878;SDS011;8556;52.218;9.884;2022-12-10T08:06:15;50.30;;;18.40;;
16878;SDS011;8556;52.218;9.884;2022-12-10T08:08:43;45.87;;;15.63;;
16878;SDS011;8556;52.218;9.884;2022-12-10T08:11:11;43.83;;;16.10;;
16878;SDS011;8556;52.218;9.884;2022-12-10T08:13:39;39.53;;;15.00;;
16878;SDS011;8556;52.218;9.884;2022-12-10T08:16:07;45.13;;;15.00;;
16878;SDS011;8556;52.218;9.884;2022-12-10T08:18:37;43.03;;;16.07;;
16878;SDS011;8556;52.218;9.884;2022-12-10T08:21:04;48.03;;;16.43;;
16878;SDS011;8556;52.218;9.884;2022-12-10T08:23:31;48.90;;;15.43;;
16878;SDS011;8556;52.218;9.884;2022-12-10T08:26:01;44.73;;;14.90;;
16878;SDS011;8556;52.218;9.884;2022-12-10T08:28:29;45.77;;;15.93;;
16878;SDS011;8556;52.218;9.884;2022-12-10T08:30:56;45.87;;;16.90;;
16878;SDS011;8556;52.218;9.884;2022-12-10T08:33:23;42.47;;;15.80;;
16878;SDS011;8556;52.218;9.884;2022-12-10T08:35:51;49.57;;;16.87;;
16878;SDS011;8556;52.218;9.884;2022-12-10T08:38:18;46.97;;;16.70;;
16878;SDS011;8556;52.218;9.884;2022-12-10T08:40:45;52.00;;;17.97;;
16878;SDS011;8556;52.218;9.884;2022-12-10T08:43:11;49.37;;;16.27;;
16878;SDS011;8556;52.218;9.884;2022-12-10T08:45:38;46.30;;;16.97;;
16878;SDS011;8556;52.218;9.884;2022-12-10T08:48:05;44.63;;;17.47;;
16878;SDS011;8556;52.218;9.884;2022-12-10T08:50:32;53.80;;;18.40;;
16878;SDS011;8556;52.218;9.884;2022-12-10T08:53:00;50.50;;;17.23;;
16878;SDS011;8556;52.218;9.884;2022-12-10T08:55:27;54.70;;;17.40;;
16878;SDS011;8556;52.218;9.884;2022-12-10T08:57:55;48.73;;;18.47;;
16878;SDS011;8556;52.218;9.884;2022-12-10T09:00:22;48.67;;;18.80;;
16878;SDS011;8556;52.218;9.884;2022-12-10T09:02:49;50.97;;;19.30;;
16878;SDS011;8556;52.218;9.884;2022-12-10T09:05:16;50.80;;;18.60;;
16878;SDS011;8556;52.218;9.884;2022-12-10T09:07:43;54.47;;;18.00;;
16878;SDS011;8556;52.218;9.884;2022-12-10T09:10:12;49.73;;;19.10;;
16878;SDS011;8556;52.218;9.884;2022-12-10T09:12:38;47.93;;;18.27;;
16878;SDS011;8556;52.218;9.884;2022-12-10T09:15:06;48.33;;;17.60;;
16878;SDS011;8556;52.218;9.884;2022-12-10T09:17:35;49.53;;;18.40;;
16878;SDS011;8556;52.218;9.884;2022-12-10T09:20:03;50.87;;;19.43;;
16878;SDS011;8556;52.218;9.884;2022-12-10T09:22:31;46.27;;;18.77;;
16878;SDS011;8556;52.218;9.884;2022-12-10T09:25:01;49.67;;;18.03;;
16878;SDS011;8556;52.218;9.884;2022-12-10T09:27:30;53.17;;;19.37;;
16878;SDS011;8556;52.218;9.884;2022-12-10T09:29:58;52.73;;;19.03;;
16878;SDS011;8556;52.218;9.884;2022-12-10T09:32:25;46.87;;;18.20;;
16878;SDS011;8556;52.218;9.884;2022-12-10T09:34:52;53.70;;;18.43;;
16878;SDS011;8556;52.218;9.884;2022-12-10T09:37:19;50.97;;;18.43;;
16878;SDS011;8556;52.218;9.884;2022-12-10T09:39:47;53.47;;;20.67;;
16878;SDS011;8556;52.218;9.884;2022-12-10T09:42:18;55.40;;;19.17;;
16878;SDS011;8556;52.218;9.884;2022-12-10T09:44:57;46.97;;;18.73;;
16878;SDS011;8556;52.218;9.884;2022-12-10T09:47:30;52.00;;;18.60;;
16878;SDS011;8556;52.218;9.884;2022-12-10T09:50:03;51.60;;;19.30;;
16878;SDS011;8556;52.218;9.884;2022-12-10T09:52:39;49.33;;;18.07;;
16878;SDS011;8556;52.218;9.884;2022-12-10T09:55:10;56.57;;;18.73;;
16878;SDS011;8556;52.218;9.884;2022-12-10T09:57:40;49.30;;;18.27;;
16878;SDS011;8556;52.218;9.884;2022-12-10T10:00:18;48.37;;;17.53;;
16878;SDS011;8556;52.218;9.884;2022-12-10T10:02:47;46.73;;;19.60;;
16878;SDS011;8556;52.218;9.884;2022-12-10T10:05:17;55.20;;;20.37;;
16878;SDS011;8556;52.218;9.884;2022-12-10T10:07:48;48.07;;;19.53;;
16878;SDS011;8556;52.218;9.884;2022-12-10T10:10:21;54.70;;;20.80;;
16878;SDS011;8556;52.218;9.884;2022-12-10T10:12:52;48.47;;;19.40;;
16878;SDS011;8556;52.218;9.884;2022-12-10T10:15:24;61.53;;;20.73;;
16878;SDS011;8556;52.218;9.884;2022-12-10T10:17:56;50.43;;;20.63;;
16878;SDS011;8556;52.218;9.884;2022-12-10T10:20:24;55.47;;;19.90;;
16878;SDS011;8556;52.218;9.884;2022-12-10T10:22:51;55.97;;;20.87;;
16878;SDS011;8556;52.218;9.884;2022-12-10T10:25:22;62.53;;;18.83;;
16878;SDS011;8556;52.218;9.884;2022-12-10T10:27:49;56.30;;;22.00;;
16878;SDS011;8556;52.218;9.884;2022-12-10T10:30:17;52.53;;;20.13;;
16878;SDS011;8556;52.218;9.884;2022-12-10T10:32:47;61.60;;;20.23;;
16878;SDS011;8556;52.218;9.884;2022-12-10T10:35:22;63.20;;;20.67;;
16878;SDS011;8556;52.218;9.884;2022-12-10T10:37:56;59.97;;;22.00;;
16878;SDS011;8556;52.218;9.884;2022-12-10T10:40:25;54.33;;;19.33;;
16878;SDS011;8556;52.218;9.884;2022-12-10T10:42:55;58.90;;;21.63;;
16878;SDS011;8556;52.218;9.884;2022-12-10T10:45:30;59.27;;;20.77;;
16878;SDS011;8556;52.218;9.884;2022-12-10T10:48:08;60.60;;;21.00;;
16878;SDS011;8556;52.218;9.884;2022-12-10T10:50:38;63.50;;;21.40;;
16878;SDS011;8556;52.218;9.884;2022-12-10T10:53:26;69.37;;;22.87;;
16878;SDS011;8556;52.218;9.884;2022-12-10T10:55:57;63.60;;;21.83;;
16878;SDS011;8556;52.218;9.884;2022-12-10T10:58:27;51.73;;;19.10;;
16878;SDS011;8556;52.218;9.884;2022-12-10T11:00:55;63.47;;;22.00;;
16878;SDS011;8556;52.218;9.884;2022-12-10T11:03:25;62.73;;;21.63;;
16878;SDS011;8556;52.218;9.884;2022-12-10T11:05:53;64.60;;;20.83;;
16878;SDS011;8556;52.218;9.884;2022-12-10T11:08:23;69.43;;;22.40;;
16878;SDS011;8556;52.218;9.884;2022-12-10T11:10:55;64.27;;;21.00;;
16878;SDS011;8556;52.218;9.884;2022-12-10T11:13:27;61.27;;;21.87;;
16878;SDS011;8556;52.218;9.884;2022-12-10T11:15:56;60.30;;;21.67;;
16878;SDS011;8556;52.218;9.884;2022-12-10T11:18:30;62.67;;;21.80;;
16878;SDS011;8556;52.218;9.884;2022-12-10T11:21:00;65.27;;;21.90;;
16878;SDS011;8556;52.218;9.884;2022-12-10T11:23:36;61.03;;;22.03;;
16878;SDS011;8556;52.218;9.884;2022-12-10T11:29:20;66.10;;;22.10;;
16878;SDS011;8556;52.218;9.884;2022-12-10T11:31:58;62.73;;;21.70;;
16878;SDS011;8556;52.218;9.884;2022-12-10T11:34:41;54.07;;;20.43;;
16878;SDS011;8556;52.218;9.884;2022-12-10T11:37:18;55.63;;;22.53;;
16878;SDS011;8556;52.218;9.884;2022-12-10T11:39:59;55.13;;;21.80;;
16878;SDS011;8556;52.218;9.884;2022-12-10T11:42:39;49.20;;;20.03;;
16878;SDS011;8556;52.218;9.884;2022-12-10T11:45:13;50.53;;;20.23;;
16878;SDS011;8556;52.218;9.884;2022-12-10T11:47:48;52.27;;;19.93;;
16878;SDS011;8556;52.218;9.884;2022-12-10T11:50:26;49.30;;;18.73;;
16878;SDS011;8556;52.218;9.884;2022-12-10T11:53:08;55.27;;;21.07;;
16878;SDS011;8556;52.218;9.884;2022-12-10T11:55:47;51.03;;;20.63;;
16878;SDS011;8556;52.218;9.884;2022-12-10T11:58:26;51.97;;;21.80;;
16878;SDS011;8556;52.218;9.884;2022-12-10T12:01:06;59.00;;;23.03;;
16878;SDS011;8556;52.218;9.884;2022-12-10T12:03:46;54.53;;;20.57;;
16878;SDS011;8556;52.218;9.884;2022-12-10T12:06:52;60.07;;;22.60;;
16878;SDS011;8556;52.218;9.884;2022-12-10T12:09:30;54.90;;;22.23;;
16878;SDS011;8556;52.218;9.884;2022-12-10T12:12:13;47.97;;;19.03;;
16878;SDS011;8556;52.218;9.884;2022-12-10T12:14:50;55.33;;;22.43;;
16878;SDS011;8556;52.218;9.884;2022-12-10T12:17:21;62.23;;;22.87;;
16878;SDS011;8556;52.218;9.884;2022-12-10T12:19:52;52.87;;;22.10;;
16878;SDS011;8556;52.218;9.884;2022-12-10T12:22:25;52.93;;;20.77;;
16878;SDS011;8556;52.218;9.884;2022-12-10T12:24:54;54.10;;;22.33;;
16878;SDS011;8556;52.218;9.884;2022-12-10T12:27:26;53.17;;;22.03;;
16878;SDS011;8556;52.218;9.884;2022-12-10T12:29:59;47.60;;;20.47;;
16878;SDS011;8556;52.218;9.884;2022-12-10T12:32:30;53.53;;;21.53;;
16878;SDS011;8556;52.218;9.884;2022-12-10T12:35:02;48.73;;;20.03;;
16878;SDS011;8556;52.218;9.884;2022-12-10T12:37:36;50.13;;;22.30;;
16878;SDS011;8556;52.218;9.884;2022-12-10T12:40:09;46.00;;;19.27;;
16878;SDS011;8556;52.218;9.884;2022-12-10T12:42:41;44.87;;;20.60;;
16878;SDS011;8556;52.218;9.884;2022-12-10T12:45:14;43.47;;;21.07;;
16878;SDS011;8556;52.218;9.884;2022-12-10T12:47:47;43.20;;;19.43;;
16878;SDS011;8556;52.218;9.884;2022-12-10T12:50:22;45.53;;;20.53;;
16878;SDS011;8556;52.218;9.884;2022-12-10T12:52:56;42.33;;;19.17;;
16878;SDS011;8556;52.218;9.884;2022-12-10T12:55:27;41.60;;;18.43;;
16878;SDS011;8556;52.218;9.884;2022-12-10T12:58:02;41.00;;;18.63;;
16878;SDS011;8556;52.218;9.884;2022-12-10T13:00:48;40.20;;;19.07;;
16878;SDS011;8556;52.218;9.884;2022-12-10T13:03:22;38.53;;;18.60;;
16878;SDS011;8556;52.218;9.884;2022-12-10T13:05:55;40.73;;;18.80;;
16878;SDS011;8556;52.218;9.884;2022-12-10T13:08:42;38.23;;;18.27;;
16878;SDS011;8556;52.218;9.884;2022-12-10T13:11:18;42.20;;;20.17;;
16878;SDS011;8556;52.218;9.884;2022-12-10T13:22:56;41.13;;;18.03;;
16878;SDS011;8556;52.218;9.884;2022-12-10T13:28:22;39.57;;;18.70;;
16878;SDS011;8556;52.218;9.884;2022-12-10T13:31:07;36.80;;;17.10;;
16878;SDS011;8556;52.218;9.884;2022-12-10T13:33:50;38.63;;;18.10;;
16878;SDS011;8556;52.218;9.884;2022-12-10T13:36:24;41.13;;;18.43;;
16878;SDS011;8556;52.218;9.884;2022-12-10T13:38:57;37.13;;;17.97;;
16878;SDS011;8556;52.218;9.884;2022-12-10T13:41:40;39.27;;;18.70;;
16878;SDS011;8556;52.218;9.884;2022-12-10T13:44:46;42.80;;;19.93;;
16878;SDS011;8556;52.218;9.884;2022-12-10T13:47:21;40.43;;;19.43;;
16878;SDS011;8556;52.218;9.884;2022-12-10T13:49:53;45.53;;;19.80;;
16878;SDS011;8556;52.218;9.884;2022-12-10T13:52:25;47.87;;;20.37;;
16878;SDS011;8556;52.218;9.884;2022-12-10T13:55:07;41.80;;;19.40;;
16878;SDS011;8556;52.218;9.884;2022-12-10T13:57:59;47.73;;;20.93;;
16878;SDS011;8556;52.218;9.884;2022-12-10T14:00:49;46.03;;;21.17;;
16878;SDS011;8556;52.218;9.884;2022-12-10T14:03:40;40.00;;;18.50;;
16878;SDS011;8556;52.218;9.884;2022-12-10T14:06:17;46.00;;;20.93;;
16878;SDS011;8556;52.218;9.884;2022-12-10T14:08:51;40.27;;;18.37;;
16878;SDS011;8556;52.218;9.884;2022-12-10T14:11:25;40.23;;;19.63;;
16878;SDS011;8556;52.218;9.884;2022-12-10T14:13:58;45.73;;;21.10;;
16878;SDS011;8556;52.218;9.884;2022-12-10T14:16:27;45.67;;;20.87;;
16878;SDS011;8556;52.218;9.884;2022-12-10T14:18:57;42.53;;;18.27;;
16878;SDS011;8556;52.218;9.884;2022-12-10T14:21:27;40.87;;;20.90;;
16878;SDS011;8556;52.218;9.884;2022-12-10T14:23:59;46.70;;;20.57;;
16878;SDS011;8556;52.218;9.884;2022-12-10T14:26:26;45.27;;;20.97;;
16878;SDS011;8556;52.218;9.884;2022-12-10T14:28:58;42.67;;;19.97;;
16878;SDS011;8556;52.218;9.884;2022-12-10T14:31:28;44.67;;;21.37;;
16878;SDS011;8556;52.218;9.884;2022-12-10T14:33:59;41.87;;;18.67;;
16878;SDS011;8556;52.218;9.884;2022-12-10T14:36:28;40.20;;;18.80;;
16878;SDS011;8556;52.218;9.884;2022-12-10T14:38:57;43.57;;;19.70;;
16878;SDS011;8556;52.218;9.884;2022-12-10T14:41:25;46.10;;;20.87;;
16878;SDS011;8556;52.218;9.884;2022-12-10T14:43:53;42.13;;;20.03;;
16878;SDS011;8556;52.218;9.884;2022-12-10T14:46:24;40.73;;;19.20;;
16878;SDS011;8556;52.218;9.884;2022-12-10T14:48:53;45.90;;;18.20;;
16878;SDS011;8556;52.218;9.884;2022-12-10T14:51:21;44.13;;;20.50;;
16878;SDS011;8556;52.218;9.884;2022-12-10T14:53:50;40.50;;;15.97;;
16878;SDS011;8556;52.218;9.884;2022-12-10T14:56:20;40.93;;;20.13;;
16878;SDS011;8556;52.218;9.884;2022-12-10T14:58:54;39.97;;;16.43;;
16878;SDS011;8556;52.218;9.884;2022-12-10T15:01:28;42.10;;;17.80;;
16878;SDS011;8556;52.218;9.884;2022-12-10T15:03:57;44.33;;;21.20;;
16878;SDS011;8556;52.218;9.884;2022-12-10T15:06:26;43.07;;;20.27;;
16878;SDS011;8556;52.218;9.884;2022-12-10T15:08:54;41.77;;;16.70;;